AirNav   BOSE ProFlight Aviation Headset
 
 1086 users online  

20A Robbins Field Airport
Oneonta, Alabama, USA

GOING TO ONEONTA?


FAA INFORMATION EFFECTIVE 21 JUNE 2018

Location

FAA Identifier: 20A
Lat/Long: 33-58-16.6000N / 086-22-49.4000W
33-58.276667N / 086-22.823333W
33.9712778 / -86.3803889
(estimated)
Elevation: 1124.9 ft. / 342.9 m (surveyed)
Variation: 03W (2010)
From city: 5 miles NE of ONEONTA, AL
Time zone: UTC -5 (UTC -6 during Standard Time)
Zip code: 35952

Airport Operations

Airport use: Open to the public
Control tower: no
ARTCC: ATLANTA CENTER
FSS: ANNISTON FLIGHT SERVICE STATION
NOTAMs facility: ANB (NOTAM-D service available)
Attendance: UNATNDD
Wind indicator: lighted
Segmented circle: yes
Lights: ACTVT PAPI RWY 5 & MIRL RWY 05/23 - CTAF.
Beacon: white-green (lighted land airport)
Operates sunset to sunrise.

Airport Communications

CTAF/UNICOM: 122.8
BIRMINGHAM APPROACH: 125.45 [0600-2300]
BIRMINGHAM DEPARTURE: 125.45 [0600-2300]
WX AWOS-3PT at GAD (14 nm E): 127.825 (256-442-7094)
WX AWOS-3PT at 8A0 (17 nm N): 119.575 (256-891-8259)

Nearby radio navigation aids

VOR radial/distance  VOR name  Freq  Var
GADr267/14.8GADSDEN VOR/DME112.3002E
TDGr323/29.1TALLADEGA VOR/DME108.8002E
VUZr053/31.6VULCAN VORTAC114.4002E

Airport Services

Parking: tiedowns
Bottled oxygen: NONE
Bulk oxygen: NONE

Runway Information

Runway 5/23

Dimensions: 4203 x 80 ft. / 1281 x 24 m
Surface: asphalt, in fair condition
Weight bearing capacity: 
Single wheel: 20.0
Double wheel: 35.0
Double tandem: 55.0
Runway edge lights: medium intensity
RUNWAY 5  RUNWAY 23
Latitude: 33-58.077035N33-58.476817N
Longitude: 086-23.163130W086-22.483875W
Elevation: 1108.1 ft.1124.8 ft.
Gradient: 0.4% UP0.4%
Traffic pattern: leftleft
Runway heading: 058 magnetic, 055 true238 magnetic, 235 true
Displaced threshold: no105 ft.
Markings: nonprecision, in good conditionnonprecision, in good condition
Visual slope indicator: 2-light PAPI on left (4.00 degrees glide path)2-light PAPI on left (3.00 degrees glide path)
Touchdown point: yes, no lightsyes, no lights
Obstructions: 91 ft. trees, 1334 ft. from runway, 40 ft. left of centerline, 12:1 slope to clear
RWY 23 APCH SLOPE 15:1 TO DSPLCD THLD.
none

Airport Ownership and Management from official FAA records

Ownership: Publicly-owned
Owner: CITY OF ONEONTA & BLOUNT CTY.
202 3RD AVE EAST
ONEONTA, AL 35121
Phone 205-274-2150
Manager: EDWARD LOWE
202 3RD AVE EAST
ONEONTA, AL 35121
Phone 205-274-2127

Airport Operational Statistics

Aircraft based on the field: 11
Single engine airplanes: 10
Multi engine airplanes: 1
    
Aircraft operations: avg 53/week *
53% transient general aviation
47% local general aviation
* for 12-month period ending 31 May 2019

Additional Remarks

DEER ON & INVOF ARPT.

Instrument Procedures

NOTE: All procedures below are presented as PDF files. If you need a reader for these files, you should download the free Adobe Reader.

NOT FOR NAVIGATION. Please procure official charts for flight.
FAA instrument procedures published for use from 21 June 2018 at 0901Z to 19 July 2018 at 0900Z.

 
IAPs - Instrument Approach Procedures
RNAV (GPS) RWY 05 **CHANGED**   download (189KB)
RNAV (GPS) RWY 23 **CHANGED**   download (202KB)
NOTE: Special Take-Off Minimums/Departure Procedures apply **CHANGED**   download (328KB)

Other nearby airports with instrument procedures:

KGAD - Northeast Alabama Regional Airport (14 nm E)
8A0 - Albertville Regional Airport-Thomas J Brumlik Field (17 nm N)
KPLR - St Clair County Airport (26 nm S)
8A1 - Guntersville Municipal Airport - Joe Starnes Field (27 nm N)
KASN - Talladega Municipal Airport (29 nm SE)
 
Loc | Ops | Rwys | IFR | FBO | Links
Com | Nav | Svcs | Stats | Notes


 
Area around 20A (Robbins Field Airport)
 
Road maps at: MapQuest Bing Google
 
Aerial photo
WARNING: Photo may not be current or correct
Aerial photo of 20A (Robbins Field Airport)
Do you have a better or more recent aerial photo of Robbins Field Airport that you would like to share? If so, please send us your photo.

 
Sectional chart

 
Airport distance calculator
Flying to Robbins Field Airport? Find the distance to fly.

From to 20A

Sunrise and sunset
Times for 15-Jul-2018
 Local
(UTC-5)
 Zulu
(UTC)
Morning civil twilight05:1810:18
Sunrise05:4610:46
Sunset19:5600:56
Evening civil twilight20:2501:25

Current date and time
Zulu (UTC)  15-Jul-2018 20:54:33
Local (UTC-5)  15-Jul-2018 15:54:33
 
METAR
KGAD 
16nm E 
151856Z AUTO 10SM CLR 32/26 A3003 RMK AO2 SLP169 T03170256
K8A0 
17nm N 
152035Z AUTO 35004KT 10SM SCT030 SCT050 SCT080 30/25 A3003 RMK AO2
KPLR 
26nm S 
152035Z AUTO 00000KT 10SM CLR 32/25 A3001 RMK A01
KASN 
29nm SE 
152035Z AUTO 06003KT 10SM BKN038 BKN046 33/24 A3001 RMK AO2 LTG DSNT S THRU NW T03250242
KCMD 
30nm NW 
152035Z AUTO 36003KT 10SM BKN031 BKN038 BKN045 32/23 A3006 RMK AO2 LTG DSNT W T03170231
KBHM 
30nm SW 
151953Z 13004KT 10SM FEW048 FEW060 SCT250 33/22 A3002 RMK AO2 SLP157 T03280222
TAF
KASN 
29nm SE 
151725Z 1518/1618 21005KT P6SM OVC017 FM151900 34005KT P6SM VCTS BKN050CB FM160100 19003KT P6SM OVC200 FM161000 00000KT 4SM BR BKN007
KBHM 
30nm SW 
151725Z 1518/1618 30005KT P6SM SCT018 BKN250 FM151900 29005KT P6SM VCTS BKN050CB FM160200 19003KT P6SM OVC200
KANB 
35nm SE 
151725Z 1518/1618 33005KT P6SM VCTS BKN050CB FM160100 21003KT P6SM OVC200 FM161000 00000KT 4SM BR BKN007
NOTAMs
Click for the latest NOTAMs
NOTAMs are issued by the DoD/FAA and will open in a separate window not controlled by AirNav.

 

 
 

Would you like to see your business listed on this page?

 If your business provides an interesting product or service to pilots, flight crews, aircraft, or users of the Robbins Field Airport, you should consider listing it here.  To start the listing process, click on the button below
 
Add a business
 

Other Pages about Robbins Field Airport

Update a link
 
Copyright © AirNav, LLC. All rights reserved. Privacy Policy  Contact